Time,TemperatureF,DewpointF,PressureIn,WindDirection,WindDirectionDegrees,WindSpeedMPH,WindSpeedGustMPH,Humidity,HourlyPrecipIn,Conditions,Clouds,dailyrainin,SolarRadiationWatts/m^2,SoftwareType,DateUTC
2013-08-30 00:00:00,64.2,59.3,29.94,NNW,337,0.0,3.0,84,0.00,,,-99.99,0,WeatherLink 5.7,2013-08-30 07:00:00,
2013-08-30 00:15:00,64.0,59.4,29.94,NW,315,0.0,3.0,85,0.00,,,-99.99,0,WeatherLink 5.7,2013-08-30 07:15:00,
2013-08-30 00:30:00,63.9,59.6,29.94,NW,315,0.0,2.0,86,0.00,,,-99.99,0,WeatherLink 5.7,2013-08-30 07:30:00,
2013-08-30 00:45:00,63.9,59.6,29.93,NW,315,0.0,3.0,86,0.00,,,-99.99,0,WeatherLink 5.7,2013-08-30 07:45:00,
2013-08-30 01:00:00,64.2,59.3,29.94,NNW,342,0.0,2.0,84,0.00,,,0.00,,Wunderground v.1.13,2013-08-30 08:00:00,
2013-08-30 01:05:00,64.0,59.1,29.94,NW,304,0.0,3.0,84,0.00,,,0.00,,Wunderground v.1.13,2013-08-30 08:05:00,
2013-08-30 01:15:00,64.0,59.4,29.94,NW,305,0.0,3.0,85,0.00,,,0.00,,Wunderground v.1.13,2013-08-30 08:15:00,
2013-08-30 01:20:00,64.0,59.4,29.94,NW,305,0.0,3.0,85,0.00,,,0.00,,Wunderground v.1.13,2013-08-30 08:20:00,
2013-08-30 01:30:00,63.9,59.6,29.94,NW,305,0.0,3.0,86,0.00,,,0.00,,Wunderground v.1.13,2013-08-30 08:30:00,
2013-08-30 01:40:00,63.9,59.6,29.94,NW,305,0.0,2.0,86,0.00,,,0.00,,Wunderground v.1.13,2013-08-30 08:40:00,
2013-08-30 01:45:00,63.2,59.6,29.92,NW,315,0.0,2.0,88,0.00,,,-99.99,0,WeatherLink 5.7,2013-08-30 08:45:00,
2013-08-30 01:50:00,63.9,60.0,29.93,NW,305,0.0,2.0,87,0.00,,,0.00,,Wunderground v.1.13,2013-08-30 08:50:00,
2013-08-30 02:00:00,63.7,59.8,29.93,NW,305,0.0,2.0,87,0.00,,,0.00,,Wunderground v.1.13,2013-08-30 09:00:00,
2013-08-30 02:05:00,63.7,59.8,29.93,NW,308,0.0,1.0,87,0.00,,,0.00,,Wunderground v.1.13,2013-08-30 09:05:00,
2013-08-30 02:15:00,63.7,60.1,29.93,NW,319,0.0,1.0,88,0.00,,,0.00,,Wunderground v.1.13,2013-08-30 09:15:00,
2013-08-30 02:25:00,63.5,59.9,29.93,NW,323,0.0,1.0,88,0.00,,,0.00,,Wunderground v.1.13,2013-08-30 09:25:00,
2013-08-30 02:30:00,63.4,59.8,29.93,NW,323,0.0,1.0,88,0.00,,,0.00,,Wunderground v.1.13,2013-08-30 09:30:00,
2013-08-30 02:35:00,63.4,59.8,29.93,NW,325,0.0,1.0,88,0.00,,,0.00,,Wunderground v.1.13,2013-08-30 09:35:00,
2013-08-30 02:40:00,63.4,59.8,29.93,NW,325,0.0,1.0,88,0.00,,,0.00,,Wunderground v.1.13,2013-08-30 09:40:00,
2013-08-30 02:45:00,62.1,58.8,29.92,North,-999,0.0,0.0,89,0.00,,,-99.99,0,WeatherLink 5.7,2013-08-30 09:45:00,
2013-08-30 02:50:00,63.2,59.6,29.93,NW,325,0.0,1.0,88,0.00,,,0.00,,Wunderground v.1.13,2013-08-30 09:50:00,
2013-08-30 02:55:00,63.2,59.9,29.93,NW,325,0.0,1.0,89,0.00,,,0.00,,Wunderground v.1.13,2013-08-30 09:55:00,
2013-08-30 03:00:00,61.8,58.5,29.92,North,-999,0.0,0.0,89,0.00,,,-99.99,0,WeatherLink 5.7,2013-08-30 10:00:00,
2013-08-30 03:05:00,63.2,59.9,29.92,NW,325,0.0,2.0,89,0.00,,,0.00,,Wunderground v.1.13,2013-08-30 10:05:00,
2013-08-30 03:10:00,63.1,59.8,29.92,NNW,328,0.0,2.0,89,0.00,,,0.00,,Wunderground v.1.13,2013-08-30 10:10:00,
2013-08-30 03:15:00,61.6,58.9,29.92,NNW,337,0.0,1.0,91,0.00,,,-99.99,0,WeatherLink 5.7,2013-08-30 10:15:00,
2013-08-30 03:20:00,62.9,59.6,29.92,NNW,328,0.0,2.0,89,0.00,,,0.00,,Wunderground v.1.13,2013-08-30 10:20:00,
2013-08-30 03:25:00,62.7,59.4,29.92,NNW,328,0.0,2.0,89,0.00,,,0.00,,Wunderground v.1.13,2013-08-30 10:25:00,
2013-08-30 03:30:00,61.5,58.8,29.92,NNW,337,0.0,2.0,91,0.00,,,-99.99,0,WeatherLink 5.7,2013-08-30 10:30:00,
2013-08-30 03:35:00,62.4,58.8,29.92,NNW,328,0.0,0.0,88,0.00,,,0.00,,Wunderground v.1.13,2013-08-30 10:35:00,
2013-08-30 03:40:00,62.3,58.7,29.92,NNW,328,0.0,0.0,88,0.00,,,0.00,,Wunderground v.1.13,2013-08-30 10:40:00,
2013-08-30 03:45:00,61.3,58.7,29.92,NNW,337,0.0,2.0,91,0.00,,,-99.99,0,WeatherLink 5.7,2013-08-30 10:45:00,
2013-08-30 03:50:00,62.0,58.7,29.92,NNW,328,0.0,0.0,89,0.00,,,0.00,,Wunderground v.1.13,2013-08-30 10:50:00,
2013-08-30 03:55:00,62.0,58.7,29.92,NNW,328,0.0,0.0,89,0.00,,,0.00,,Wunderground v.1.13,2013-08-30 10:55:00,
2013-08-30 04:00:00,61.8,58.5,29.92,NNW,328,0.0,0.0,89,0.00,,,0.00,,Wunderground v.1.13,2013-08-30 11:00:00,
2013-08-30 04:10:00,61.6,58.6,29.92,NNW,328,0.0,0.0,90,0.00,,,0.00,,Wunderground v.1.13,2013-08-30 11:10:00,
2013-08-30 04:15:00,60.9,58.6,29.92,NNW,337,0.0,1.0,92,0.00,,,-99.99,0,WeatherLink 5.7,2013-08-30 11:15:00,
2013-08-30 04:20:00,61.5,58.8,29.92,NNW,328,0.0,0.0,91,0.00,,,0.00,,Wunderground v.1.13,2013-08-30 11:20:00,
2013-08-30 04:25:00,61.5,58.8,29.92,NNW,328,0.0,0.0,91,0.00,,,0.00,,Wunderground v.1.13,2013-08-30 11:25:00,
2013-08-30 04:30:00,60.9,58.6,29.92,NNW,337,0.0,2.0,92,0.00,,,-99.99,0,WeatherLink 5.7,2013-08-30 11:30:00,
2013-08-30 04:35:00,61.5,58.8,29.92,NNW,328,0.0,2.0,91,0.00,,,0.00,,Wunderground v.1.13,2013-08-30 11:35:00,
2013-08-30 04:40:00,61.3,58.7,29.92,NNW,328,0.0,2.0,91,0.00,,,0.00,,Wunderground v.1.13,2013-08-30 11:40:00,
2013-08-30 04:45:00,61.3,58.7,29.92,NNW,328,0.0,2.0,91,0.00,,,0.00,,Wunderground v.1.13,2013-08-30 11:45:00,
2013-08-30 04:55:00,61.2,58.6,29.92,NNW,328,0.0,2.0,91,0.00,,,0.00,,Wunderground v.1.13,2013-08-30 11:55:00,
2013-08-30 05:00:00,61.0,58.4,29.92,NNW,328,0.0,2.0,91,0.00,,,0.00,,Wunderground v.1.13,2013-08-30 12:00:00,
2013-08-30 05:05:00,61.0,58.4,29.92,NNW,328,0.0,0.0,91,0.00,,,0.00,,Wunderground v.1.13,2013-08-30 12:05:00,
2013-08-30 05:15:00,60.9,58.6,29.92,NNW,328,0.0,0.0,92,0.00,,,0.00,,Wunderground v.1.13,2013-08-30 12:15:00,
2013-08-30 05:20:00,60.9,58.6,29.92,NNW,328,0.0,0.0,92,0.00,,,0.00,,Wunderground v.1.13,2013-08-30 12:20:00,
2013-08-30 05:30:00,60.9,58.6,29.92,NNW,328,0.0,0.0,92,0.00,,,0.00,,Wunderground v.1.13,2013-08-30 12:30:00,
2013-08-30 05:40:00,60.9,58.6,29.92,NNW,328,0.0,2.0,92,0.00,,,0.00,,Wunderground v.1.13,2013-08-30 12:40:00,
2013-08-30 05:45:00,60.7,58.4,29.92,NNW,328,0.0,2.0,92,0.00,,,0.00,,Wunderground v.1.13,2013-08-30 12:45:00,
2013-08-30 05:50:00,60.5,58.2,29.92,NNW,328,0.0,2.0,92,0.00,,,0.00,,Wunderground v.1.13,2013-08-30 12:50:00,
2013-08-30 06:00:00,60.4,57.8,29.92,NNW,328,0.0,2.0,91,0.00,,,0.00,,Wunderground v.1.13,2013-08-30 13:00:00,
2013-08-30 06:05:00,60.2,57.9,29.92,NNW,328,0.0,0.0,92,0.00,,,0.00,,Wunderground v.1.13,2013-08-30 13:05:00,
2013-08-30 06:15:00,60.1,57.8,29.93,NNW,328,0.0,0.0,92,0.00,,,0.00,,Wunderground v.1.13,2013-08-30 13:15:00,
2013-08-30 06:20:00,60.1,57.8,29.93,NNW,328,0.0,0.0,92,0.00,,,0.00,,Wunderground v.1.13,2013-08-30 13:20:00,
2013-08-30 06:30:00,59.9,57.6,29.93,NNW,328,0.0,0.0,92,0.00,,,0.00,,Wunderground v.1.13,2013-08-30 13:30:00,
2013-08-30 06:35:00,60.1,57.8,29.93,NNW,328,0.0,0.0,92,0.00,,,0.00,,Wunderground v.1.13,2013-08-30 13:35:00,
2013-08-30 06:40:00,60.1,58.1,29.93,NNW,328,0.0,0.0,93,0.00,,,0.00,,Wunderground v.1.13,2013-08-30 13:40:00,
2013-08-30 06:45:00,61.6,59.9,29.94,WSW,247,0.0,3.0,94,0.00,,,-99.99,14,WeatherLink 5.7,2013-08-30 13:45:00,
2013-08-30 06:50:00,60.1,58.1,29.94,NNW,328,0.0,0.0,93,0.00,,,0.00,,Wunderground v.1.13,2013-08-30 13:50:00,
2013-08-30 06:55:00,60.2,58.2,29.94,NNW,328,0.0,0.0,93,0.00,,,0.00,,Wunderground v.1.13,2013-08-30 13:55:00,
2013-08-30 07:00:00,62.3,60.2,29.94,WSW,247,0.0,1.0,93,0.00,,,-99.99,14,WeatherLink 5.7,2013-08-30 14:00:00,
2013-08-30 07:05:00,60.2,58.2,29.94,NNW,328,0.0,0.0,93,0.00,,,0.00,,Wunderground v.1.13,2013-08-30 14:05:00,
2013-08-30 07:10:00,60.2,58.2,29.94,NNW,328,0.0,0.0,93,0.00,,,0.00,,Wunderground v.1.13,2013-08-30 14:10:00,
2013-08-30 07:15:00,62.7,60.3,29.94,WSW,247,0.0,1.0,92,0.00,,,-99.99,16,WeatherLink 5.7,2013-08-30 14:15:00,
2013-08-30 07:20:00,60.2,58.2,29.94,NNW,328,0.0,0.0,93,0.00,,,0.00,,Wunderground v.1.13,2013-08-30 14:20:00,
2013-08-30 07:30:00,60.9,59.2,29.94,NNW,328,0.0,0.0,94,0.00,,,0.00,,Wunderground v.1.13,2013-08-30 14:30:00,
2013-08-30 07:35:00,61.2,59.5,29.94,WSW,256,0.0,1.0,94,0.00,,,0.00,,Wunderground v.1.13,2013-08-30 14:35:00,
2013-08-30 07:40:00,61.5,59.8,29.94,WSW,256,0.0,1.0,94,0.00,,,0.00,,Wunderground v.1.13,2013-08-30 14:40:00,
2013-08-30 07:45:00,64.3,61.3,29.94,WSW,247,0.0,2.0,90,0.00,,,-99.99,18,WeatherLink 5.7,2013-08-30 14:45:00,
2013-08-30 07:50:00,61.8,60.1,29.94,WSW,256,0.0,1.0,94,0.00,,,0.00,,Wunderground v.1.13,2013-08-30 14:50:00,
2013-08-30 08:00:00,62.3,60.2,29.94,WSW,256,0.0,1.0,93,0.00,,,0.00,,Wunderground v.1.13,2013-08-30 15:00:00,
2013-08-30 08:10:00,62.6,60.5,29.94,WSW,256,0.0,1.0,93,0.00,,,0.00,,Wunderground v.1.13,2013-08-30 15:10:00,
2013-08-30 08:15:00,62.7,60.3,29.94,WSW,256,0.0,1.0,92,0.00,,,0.00,,Wunderground v.1.13,2013-08-30 15:15:00,
2013-08-30 08:25:00,63.1,60.7,29.94,WSW,256,0.0,1.0,92,0.00,,,0.00,,Wunderground v.1.13,2013-08-30 15:25:00,
2013-08-30 08:30:00,68.1,60.6,29.94,NW,315,0.0,2.0,77,0.00,,,-99.99,19,WeatherLink 5.7,2013-08-30 15:30:00,
2013-08-30 08:35:00,63.5,61.1,29.94,WSW,256,0.0,0.0,92,0.00,,,0.00,,Wunderground v.1.13,2013-08-30 15:35:00,
2013-08-30 08:40:00,63.9,61.2,29.94,WSW,256,0.0,0.0,91,0.00,,,0.00,,Wunderground v.1.13,2013-08-30 15:40:00,
2013-08-30 08:45:00,69.9,60.1,29.94,NW,315,0.0,4.0,71,0.00,,,-99.99,20,WeatherLink 5.7,2013-08-30 15:45:00,
2013-08-30 08:50:00,64.7,61.1,29.94,NNW,332,0.0,0.0,88,0.00,,,0.00,,Wunderground v.1.13,2013-08-30 15:50:00,
2013-08-30 09:00:00,65.6,61.0,29.95,NW,307,0.0,0.0,85,0.00,,,0.00,,Wunderground v.1.13,2013-08-30 16:00:00,
2013-08-30 09:05:00,66.1,60.8,29.95,NW,306,0.0,2.0,83,0.00,,,0.00,,Wunderground v.1.13,2013-08-30 16:05:00,
2013-08-30 09:10:00,66.6,60.6,29.95,NW,306,0.0,2.0,81,0.00,,,0.00,,Wunderground v.1.13,2013-08-30 16:10:00,
2013-08-30 09:15:00,73.5,61.0,29.93,NW,315,1.0,6.0,65,0.00,,,-99.99,22,WeatherLink 5.7,2013-08-30 16:15:00,
2013-08-30 09:20:00,67.6,60.9,29.95,NW,306,0.0,2.0,79,0.00,,,0.00,,Wunderground v.1.13,2013-08-30 16:20:00,
2013-08-30 09:25:00,67.8,61.0,29.95,NW,306,0.0,2.0,79,0.00,,,0.00,,Wunderground v.1.13,2013-08-30 16:25:00,
2013-08-30 09:30:00,68.1,60.6,29.94,NW,306,0.0,2.0,77,0.00,,,0.00,,Wunderground v.1.13,2013-08-30 16:30:00,
2013-08-30 09:40:00,69.1,60.1,29.94,WNW,298,0.0,2.0,73,0.00,,,0.00,,Wunderground v.1.13,2013-08-30 16:40:00,
2013-08-30 09:45:00,69.9,60.1,29.94,NW,306,1.0,1.0,71,0.00,,,0.00,,Wunderground v.1.13,2013-08-30 16:45:00,
2013-08-30 09:55:00,70.9,60.6,29.94,WNW,302,0.0,2.0,70,0.00,,,0.00,,Wunderground v.1.13,2013-08-30 16:55:00,
2013-08-30 10:00:00,77.4,59.5,29.92,West,270,0.0,1.0,54,0.00,,,-99.99,31,WeatherLink 5.7,2013-08-30 17:00:00,
2013-08-30 10:05:00,72.1,60.1,29.94,NW,306,1.0,1.0,66,0.00,,,0.00,,Wunderground v.1.13,2013-08-30 17:05:00,
2013-08-30 10:15:00,73.5,61.0,29.93,NW,315,1.0,1.0,65,0.00,,,0.00,,Wunderground v.1.13,2013-08-30 17:15:00,
2013-08-30 10:20:00,74.0,60.6,29.93,NW,315,0.0,3.0,63,0.00,,,0.00,,Wunderground v.1.13,2013-08-30 17:20:00,
2013-08-30 10:30:00,74.7,60.4,29.93,East,85,0.0,3.0,61,0.00,,,0.00,,Wunderground v.1.13,2013-08-30 17:30:00,
2013-08-30 10:35:00,75.3,60.5,29.93,East,85,0.0,4.0,60,0.00,,,0.00,,Wunderground v.1.13,2013-08-30 17:35:00,
2013-08-30 10:45:00,75.8,60.4,29.93,West,281,0.0,4.0,59,0.00,,,0.00,,Wunderground v.1.13,2013-08-30 17:45:00,
2013-08-30 10:55:00,76.8,60.4,29.93,West,281,0.0,4.0,57,0.00,,,0.00,,Wunderground v.1.13,2013-08-30 17:55:00,
2013-08-30 11:00:00,83.2,56.4,29.92,NW,315,0.0,3.0,40,0.00,,,-99.99,726,WeatherLink 5.7,2013-08-30 18:00:00,
2013-08-30 11:05:00,77.9,59.4,29.92,West,281,0.0,1.0,53,0.00,,,0.00,,Wunderground v.1.13,2013-08-30 18:05:00,
2013-08-30 11:15:00,78.8,59.7,29.92,West,281,0.0,1.0,52,0.00,,,0.00,,Wunderground v.1.13,2013-08-30 18:15:00,
2013-08-30 11:20:00,79.6,60.4,29.92,NE,55,0.0,1.0,52,0.00,,,0.00,,Wunderground v.1.13,2013-08-30 18:20:00,
2013-08-30 11:30:00,80.5,59.0,29.92,NE,38,0.0,1.0,48,0.00,,,0.00,,Wunderground v.1.13,2013-08-30 18:30:00,
2013-08-30 11:40:00,81.2,59.1,29.92,NW,304,0.0,2.0,47,0.00,,,0.00,,Wunderground v.1.13,2013-08-30 18:40:00,
2013-08-30 11:45:00,87.0,56.0,29.90,NE,45,1.0,3.0,35,0.00,,,-99.99,105,WeatherLink 5.7,2013-08-30 18:45:00,
2013-08-30 11:50:00,82.2,59.4,29.92,NW,304,0.0,2.0,46,0.00,,,0.00,,Wunderground v.1.13,2013-08-30 18:50:00,
2013-08-30 12:00:00,83.0,56.2,29.92,NW,319,0.0,2.0,40,0.00,,,0.00,,Wunderground v.1.13,2013-08-30 19:00:00,
2013-08-30 12:10:00,84.1,55.7,29.92,NW,319,0.0,3.0,38,0.00,,,0.00,,Wunderground v.1.13,2013-08-30 19:10:00,
2013-08-30 12:15:00,84.7,57.0,29.91,ENE,59,0.0,3.0,39,0.00,,,0.00,,Wunderground v.1.13,2013-08-30 19:15:00,
2013-08-30 12:25:00,85.3,57.5,29.91,NE,48,0.0,3.0,39,0.00,,,0.00,,Wunderground v.1.13,2013-08-30 19:25:00,
2013-08-30 12:30:00,91.4,53.7,29.88,North,0,0.0,3.0,28,0.00,,,-99.99,58,WeatherLink 5.7,2013-08-30 19:30:00,
2013-08-30 12:35:00,86.1,56.8,29.90,ENE,75,0.0,3.0,37,0.00,,,0.00,,Wunderground v.1.13,2013-08-30 19:35:00,
2013-08-30 12:45:00,87.0,56.0,29.90,North,355,1.0,1.0,35,0.00,,,0.00,,Wunderground v.1.13,2013-08-30 19:45:00,
2013-08-30 12:55:00,88.0,56.9,29.90,North,5,0.0,3.0,35,0.00,,,0.00,,Wunderground v.1.13,2013-08-30 19:55:00,
2013-08-30 13:00:00,88.6,55.0,29.89,North,5,0.0,3.0,32,0.00,,,0.00,,Wunderground v.1.13,2013-08-30 20:00:00,
2013-08-30 13:05:00,89.0,55.3,29.89,North,5,0.0,2.0,32,0.00,,,0.00,,Wunderground v.1.13,2013-08-30 20:05:00,
2013-08-30 13:15:00,90.1,55.4,29.89,North,5,0.0,2.0,31,0.00,,,0.00,,Wunderground v.1.13,2013-08-30 20:15:00,
2013-08-30 13:25:00,91.0,53.4,29.89,North,5,0.0,2.0,28,0.00,,,0.00,,Wunderground v.1.13,2013-08-30 20:25:00,
2013-08-30 13:30:00,91.4,53.7,29.88,WSW,257,0.0,2.0,28,0.00,,,0.00,,Wunderground v.1.13,2013-08-30 20:30:00,
2013-08-30 13:45:00,93.8,55.8,29.86,West,270,1.0,6.0,28,0.00,,,-99.99,57,WeatherLink 5.7,2013-08-30 20:45:00,
2013-08-30 14:00:00,93.8,53.7,29.85,WNW,292,0.0,5.0,26,0.00,,,-99.99,67,WeatherLink 5.7,2013-08-30 21:00:00,
2013-08-30 14:15:00,93.6,51.4,29.85,NW,315,0.0,5.0,24,0.00,,,-99.99,366,WeatherLink 5.7,2013-08-30 21:15:00,
2013-08-30 14:30:00,93.6,49.0,29.84,West,270,1.0,6.0,22,0.00,,,-99.99,375,WeatherLink 5.7,2013-08-30 21:30:00,
2013-08-30 14:45:00,93.6,47.8,29.84,West,270,1.0,10.0,21,0.00,,,-99.99,138,WeatherLink 5.7,2013-08-30 21:45:00,
2013-08-30 15:00:00,93.2,41.9,29.84,West,270,1.0,6.0,17,0.00,,,-99.99,124,WeatherLink 5.7,2013-08-30 22:00:00,
2013-08-30 15:15:00,92.9,43.1,29.84,WNW,292,1.0,7.0,18,0.00,,,-99.99,60,WeatherLink 5.7,2013-08-30 22:15:00,
2013-08-30 15:30:00,92.7,47.0,29.83,WNW,292,1.0,5.0,21,0.00,,,-99.99,87,WeatherLink 5.7,2013-08-30 22:30:00,
2013-08-30 15:45:00,92.5,50.5,29.83,WNW,292,1.0,6.0,24,0.00,,,-99.99,504,WeatherLink 5.7,2013-08-30 22:45:00,
2013-08-30 16:00:00,92.9,51.9,29.83,West,270,1.0,5.0,25,0.00,,,-99.99,531,WeatherLink 5.7,2013-08-30 23:00:00,
2013-08-30 16:15:00,92.9,54.0,29.83,NW,315,1.0,5.0,27,0.00,,,-99.99,489,WeatherLink 5.7,2013-08-30 23:15:00,
2013-08-30 16:30:00,92.7,54.8,29.83,West,270,1.0,6.0,28,0.00,,,-99.99,439,WeatherLink 5.7,2013-08-30 23:30:00,
2013-08-30 16:45:00,93.4,55.4,29.83,NW,315,1.0,7.0,28,0.00,,,-99.99,391,WeatherLink 5.7,2013-08-30 23:45:00,
2013-08-30 17:00:00,92.5,53.7,29.83,North,0,1.0,9.0,27,0.00,,,-99.99,342,WeatherLink 5.7,2013-08-31 00:00:00,
2013-08-30 17:15:00,91.2,54.5,29.83,WNW,292,0.0,5.0,29,0.00,,,-99.99,180,WeatherLink 5.7,2013-08-31 00:15:00,
2013-08-30 17:30:00,88.8,51.5,29.83,NW,315,1.0,5.0,28,0.00,,,-99.99,32,WeatherLink 5.7,2013-08-31 00:30:00,
2013-08-30 17:45:00,87.2,51.1,29.83,NNW,337,0.0,2.0,29,0.00,,,-99.99,23,WeatherLink 5.7,2013-08-31 00:45:00,
2013-08-30 18:00:00,85.3,48.5,29.83,WNW,292,1.0,5.0,28,0.00,,,-99.99,13,WeatherLink 5.7,2013-08-31 01:00:00,
2013-08-30 18:15:00,83.8,49.1,29.83,West,270,1.0,6.0,30,0.00,,,-99.99,8,WeatherLink 5.7,2013-08-31 01:15:00,
2013-08-30 18:30:00,82.4,49.6,29.83,West,270,0.0,4.0,32,0.00,,,-99.99,5,WeatherLink 5.7,2013-08-31 01:30:00,
2013-08-30 18:45:00,81.1,50.9,29.83,WNW,292,0.0,1.0,35,0.00,,,-99.99,0,WeatherLink 5.7,2013-08-31 01:45:00,
2013-08-30 19:00:00,79.6,55.1,29.83,WNW,292,0.0,2.0,43,0.00,,,-99.99,0,WeatherLink 5.7,2013-08-31 02:00:00,
2013-08-30 19:15:00,77.9,57.2,29.84,NNW,337,0.0,2.0,49,0.00,,,-99.99,0,WeatherLink 5.7,2013-08-31 02:15:00,
2013-08-30 19:30:00,76.5,57.0,29.84,NNW,337,0.0,1.0,51,0.00,,,-99.99,0,WeatherLink 5.7,2013-08-31 02:30:00,
2013-08-30 19:45:00,75.4,57.1,29.84,NNW,337,0.0,1.0,53,0.00,,,-99.99,0,WeatherLink 5.7,2013-08-31 02:45:00,
2013-08-30 20:00:00,74.6,56.9,29.84,NNW,337,0.0,1.0,54,0.00,,,-99.99,0,WeatherLink 5.7,2013-08-31 03:00:00,
2013-08-30 20:15:00,73.9,56.7,29.85,North,-999,0.0,0.0,55,0.00,,,-99.99,0,WeatherLink 5.7,2013-08-31 03:15:00,
2013-08-30 20:30:00,72.7,57.1,29.85,NNW,337,0.0,1.0,58,0.00,,,-99.99,0,WeatherLink 5.7,2013-08-31 03:30:00,
2013-08-30 20:45:00,71.8,57.2,29.85,NNW,337,0.0,2.0,60,0.00,,,-99.99,0,WeatherLink 5.7,2013-08-31 03:45:00,
2013-08-30 21:00:00,71.3,57.2,29.85,NNW,337,0.0,2.0,61,0.00,,,-99.99,0,WeatherLink 5.7,2013-08-31 04:00:00,
2013-08-30 21:15:00,70.9,57.2,29.85,NNW,337,0.0,1.0,62,0.00,,,-99.99,0,WeatherLink 5.7,2013-08-31 04:15:00,
2013-08-30 21:30:00,70.1,56.9,29.86,NNW,337,0.0,1.0,63,0.00,,,-99.99,0,WeatherLink 5.7,2013-08-31 04:30:00,
2013-08-30 21:45:00,69.3,57.0,29.86,NNW,337,0.0,1.0,65,0.00,,,-99.99,0,WeatherLink 5.7,2013-08-31 04:45:00,
2013-08-30 22:00:00,68.8,57.8,29.86,NNW,337,0.0,1.0,68,0.00,,,-99.99,0,WeatherLink 5.7,2013-08-31 05:00:00,
2013-08-30 22:15:00,68.1,57.5,29.86,NNW,337,0.0,1.0,69,0.00,,,-99.99,0,WeatherLink 5.7,2013-08-31 05:15:00,
2013-08-30 22:30:00,67.4,57.3,29.86,NNW,337,0.0,2.0,70,0.00,,,-99.99,0,WeatherLink 5.7,2013-08-31 05:30:00,
2013-08-30 22:45:00,66.9,56.8,29.86,WSW,247,0.0,2.0,70,0.00,,,-99.99,0,WeatherLink 5.7,2013-08-31 05:45:00,
2013-08-30 23:00:00,66.8,57.1,29.86,WSW,247,0.0,1.0,71,0.00,,,-99.99,0,WeatherLink 5.7,2013-08-31 06:00:00,
2013-08-30 23:15:00,66.4,57.5,29.86,West,270,1.0,5.0,73,0.00,,,-99.99,0,WeatherLink 5.7,2013-08-31 06:15:00,
2013-08-30 23:30:00,66.0,57.1,29.86,West,270,0.0,1.0,73,0.00,,,-99.99,0,WeatherLink 5.7,2013-08-31 06:30:00,
2013-08-30 23:45:00,65.5,56.6,29.86,West,270,0.0,1.0,73,0.00,,,-99.99,0,WeatherLink 5.7,2013-08-31 06:45:00,